Fishers Ferry, Pennsylvania
Current Conditions -  °F | °C
As of 7:53 AM on Sunday 21 Dec 2014 (Local Time) from KSEG Reporting Station
Overcast Overcast  
Wind Chill: 31°   Ceiling: 2800
Heat Index: 31°   Visibility: 10mi
Dew Point: 23°   Wind: 3mph
Humidity: 72%   Direction: 280°W
Pressure: 30.32"   Gusts: NA
Location:  40.83°N, 76.761°W
Report Text: KSEG 211253Z AUTO 28003KT 10SM OVC028 M01/M05 A3032 RMK AO2 SLP274 T10061050
Loading
Personal Weather Stations






























Interactive Weather Map New forecast layout! Learn more

10-Day Weather Forecast

Advertisements
Track Severe Weather on mobile